createdAt,value
2022-08-02T00:01:20.073Z,3.03
2022-08-02T00:03:49.852Z,3.42
2022-08-02T00:06:22.865Z,3.90
2022-08-02T00:08:53.991Z,3.30
2022-08-02T00:11:23.782Z,3.50
2022-08-02T00:13:53.539Z,3.40
2022-08-02T00:16:23.978Z,3.25
2022-08-02T00:19:07.656Z,3.55
2022-08-02T00:21:39.966Z,3.30
2022-08-02T00:24:29.881Z,2.92
2022-08-02T00:26:59.616Z,3.47
2022-08-02T00:29:29.342Z,3.13
2022-08-02T00:31:59.078Z,3.17
2022-08-02T00:34:32.054Z,3.38
2022-08-02T00:37:07.415Z,3.67
2022-08-02T00:39:37.295Z,3.58
2022-08-02T00:42:07.475Z,3.47
2022-08-02T00:44:37.540Z,3.60
2022-08-02T00:47:07.850Z,3.67
2022-08-02T00:49:37.727Z,3.58
2022-08-02T00:52:10.761Z,3.92
2022-08-02T00:54:40.733Z,3.38
2022-08-02T00:57:10.465Z,3.80
2022-08-02T00:59:42.030Z,3.70
2022-08-02T01:02:12.372Z,3.30
2022-08-02T01:04:42.280Z,4.03
2022-08-02T01:07:14.718Z,3.40
2022-08-02T01:09:45.156Z,3.65
2022-08-02T01:12:16.359Z,3.42
2022-08-02T01:14:49.015Z,3.00
2022-08-02T01:17:23.570Z,3.30
2022-08-02T01:20:00.456Z,3.30
2022-08-02T01:23:05.055Z,3.53
2022-08-02T01:25:53.307Z,3.38
2022-08-02T01:28:37.806Z,3.50
2022-08-02T01:31:15.477Z,3.40
2022-08-02T01:33:50.443Z,3.88
2022-08-02T01:36:23.440Z,3.63
2022-08-02T01:38:57.354Z,3.90
2022-08-02T01:41:29.808Z,3.90
2022-08-02T01:44:04.173Z,3.40
2022-08-02T01:46:35.837Z,2.92
2022-08-02T01:49:09.473Z,3.80
2022-08-02T01:51:53.063Z,3.38
2022-08-02T01:54:27.854Z,3.55
2022-08-02T01:56:59.419Z,3.03
2022-08-02T01:59:34.425Z,3.08
2022-08-02T02:02:04.878Z,3.67
2022-08-02T02:04:35.910Z,3.38
2022-08-02T02:07:06.599Z,3.47
2022-08-02T02:09:50.184Z,3.75
2022-08-02T02:12:22.338Z,2.92
2022-08-02T02:14:56.856Z,3.20
2022-08-02T02:17:50.528Z,3.60
2022-08-02T02:20:21.346Z,3.03
2022-08-02T02:22:51.752Z,2.90
2022-08-02T02:25:27.516Z,3.25
2022-08-02T02:28:09.841Z,2.90
2022-08-02T02:30:44.573Z,2.80
2022-08-02T02:33:16.726Z,2.58
2022-08-02T02:35:49.675Z,2.65
2022-08-02T02:38:21.851Z,2.65
2022-08-02T02:40:52.020Z,2.72
2022-08-02T02:43:23.723Z,2.25
2022-08-02T02:45:56.727Z,2.70
2022-08-02T02:48:27.892Z,2.67
2022-08-02T02:50:58.454Z,2.30
2022-08-02T02:53:28.887Z,2.65
2022-08-02T02:56:19.739Z,2.63
2022-08-02T02:58:51.251Z,2.45
2022-08-02T03:01:55.636Z,2.47
2022-08-02T03:04:23.307Z,2.63
2022-08-02T03:06:53.182Z,2.72
2022-08-02T03:09:23.022Z,2.58
2022-08-02T03:11:53.820Z,2.45
2022-08-02T03:14:24.645Z,2.90
2022-08-02T03:16:58.045Z,2.45
2022-08-02T03:19:33.122Z,2.47
2022-08-02T03:22:03.529Z,2.85
2022-08-02T03:24:33.312Z,2.58
2022-08-02T03:27:03.064Z,3.03
2022-08-02T03:29:34.758Z,2.72
2022-08-02T03:32:08.216Z,3.08
2022-08-02T03:34:38.368Z,3.42
2022-08-02T03:37:08.203Z,3.38
2022-08-02T03:39:38.328Z,3.50
2022-08-02T03:42:22.916Z,2.97
2022-08-02T03:44:53.400Z,3.50
2022-08-02T03:47:26.921Z,3.20
2022-08-02T03:49:57.369Z,3.03
2022-08-02T03:52:29.428Z,3.30
2022-08-02T03:54:59.163Z,3.30
2022-08-02T03:57:29.316Z,3.03
2022-08-02T03:59:59.051Z,3.72
2022-08-02T04:02:31.347Z,3.05
2022-08-02T04:05:01.091Z,3.55
2022-08-02T04:08:33.230Z,3.20
2022-08-02T04:10:21.009Z,3.85
2022-08-02T04:12:50.993Z,3.60
2022-08-02T04:15:21.592Z,3.90
2022-08-02T04:17:57.441Z,3.15
2022-08-02T04:20:32.626Z,3.00
2022-08-02T04:23:05.044Z,3.17
2022-08-02T04:25:40.030Z,3.38
2022-08-02T04:28:16.692Z,3.30
2022-08-02T04:30:48.052Z,3.60
2022-08-02T04:33:21.305Z,3.42
2022-08-02T04:35:51.044Z,3.20
2022-08-02T04:38:20.975Z,3.25
2022-08-02T04:40:55.425Z,4.00
2022-08-02T04:43:25.749Z,3.90
2022-08-02T04:45:57.171Z,3.70
2022-08-02T04:48:29.498Z,3.60
2022-08-02T04:50:59.552Z,3.50
2022-08-02T04:53:29.455Z,3.40
2022-08-02T04:55:59.181Z,4.00
2022-08-02T04:58:44.305Z,3.65
2022-08-02T05:01:14.100Z,3.75
2022-08-02T05:03:46.854Z,3.80
2022-08-02T05:06:19.904Z,3.53
2022-08-02T05:08:52.633Z,3.95
2022-08-02T05:11:30.071Z,3.75
2022-08-02T05:14:06.887Z,3.38
2022-08-02T05:16:36.650Z,3.00
2022-08-02T05:19:08.968Z,3.75
2022-08-02T05:21:38.701Z,3.70
2022-08-02T05:24:09.683Z,3.28
2022-08-02T05:26:39.400Z,4.18
2022-08-02T05:29:09.116Z,3.67
2022-08-02T05:31:38.847Z,3.72
2022-08-02T05:34:12.194Z,3.20
2022-08-02T05:36:42.152Z,4.15
2022-08-02T05:39:13.711Z,3.40
2022-08-02T05:41:48.996Z,3.90
2022-08-02T05:44:18.797Z,3.70
2022-08-02T05:46:48.529Z,3.72
2022-08-02T05:49:20.914Z,3.45
2022-08-02T05:52:00.557Z,3.30
2022-08-02T05:54:44.194Z,3.33
2022-08-02T05:57:29.253Z,2.55
2022-08-02T06:00:08.648Z,2.58
2022-08-02T06:02:50.721Z,2.45
2022-08-02T06:05:23.794Z,2.13
2022-08-02T06:07:58.656Z,3.00
2022-08-02T06:10:30.627Z,2.97
2022-08-02T06:13:14.524Z,2.88
2022-08-02T06:15:52.963Z,2.53
2022-08-02T06:18:28.450Z,2.33
2022-08-02T06:22:32.182Z,2.10
2022-08-02T06:23:57.714Z,2.22
2022-08-02T06:26:29.847Z,1.83
2022-08-02T06:29:01.312Z,2.33
2022-08-02T06:31:31.558Z,2.10
2022-08-02T06:34:01.288Z,1.88
2022-08-02T06:36:40.436Z,1.90
2022-08-02T06:39:17.892Z,2.33
2022-08-02T06:41:50.449Z,2.30
2022-08-02T06:44:46.017Z,2.10
2022-08-02T06:47:13.113Z,2.42
2022-08-02T06:49:52.362Z,2.30
2022-08-02T06:52:30.177Z,2.70
2022-08-02T06:55:01.602Z,1.98
2022-08-02T06:57:32.215Z,1.73
2022-08-02T07:00:05.053Z,1.75
2022-08-02T07:02:34.867Z,1.63
2022-08-02T07:05:04.953Z,1.92
2022-08-02T07:07:37.577Z,1.65
2022-08-02T07:10:08.190Z,1.85
2022-08-02T07:12:38.177Z,2.00
2022-08-02T07:15:10.353Z,1.63
2022-08-02T07:17:40.038Z,1.63
2022-08-02T07:20:13.503Z,1.48
2022-08-02T07:22:45.850Z,1.55
2022-08-02T07:25:15.584Z,1.30
2022-08-02T07:27:45.487Z,1.65
2022-08-02T07:30:15.721Z,1.38
2022-08-02T07:32:45.440Z,1.80
2022-08-02T07:35:19.113Z,1.60
2022-08-02T07:37:54.961Z,1.27
2022-08-02T07:40:29.093Z,1.38
2022-08-02T07:43:03.819Z,1.30
2022-08-02T07:45:35.779Z,1.17
2022-08-02T07:48:06.330Z,1.42
2022-08-02T07:50:36.180Z,1.30
2022-08-02T07:53:08.492Z,1.10
2022-08-02T07:55:39.816Z,1.50
2022-08-02T07:58:12.456Z,1.02
2022-08-02T08:00:42.805Z,1.58
2022-08-02T08:03:12.647Z,1.05
2022-08-02T08:05:42.468Z,1.00
2022-08-02T08:08:17.538Z,1.40
2022-08-02T08:10:47.825Z,1.08
2022-08-02T08:13:17.588Z,1.17
2022-08-02T08:15:51.877Z,1.10
2022-08-02T08:18:22.536Z,1.02
2022-08-02T08:20:52.513Z,1.10
2022-08-02T08:23:24.858Z,1.20
2022-08-02T08:25:54.576Z,1.13
2022-08-02T08:28:24.447Z,0.93
2022-08-02T08:30:54.219Z,0.93
2022-08-02T08:33:23.930Z,1.10
2022-08-02T08:35:55.899Z,0.90
2022-08-02T08:38:28.521Z,1.00
2022-08-02T08:40:58.388Z,0.85
2022-08-02T08:43:28.158Z,0.90
2022-08-02T08:45:58.132Z,1.00
2022-08-02T08:48:31.283Z,1.00
2022-08-02T08:51:13.325Z,0.80
2022-08-02T08:53:46.872Z,0.80
2022-08-02T08:56:18.532Z,1.00
2022-08-02T08:58:49.872Z,1.00
2022-08-02T09:01:19.700Z,0.70
2022-08-02T09:03:49.512Z,1.00
2022-08-02T09:06:19.223Z,0.90
2022-08-02T09:08:51.592Z,0.90
2022-08-02T09:11:22.653Z,1.05
2022-08-02T09:13:54.590Z,0.90
2022-08-02T09:16:32.084Z,1.20
2022-08-02T09:19:02.681Z,1.23
2022-08-02T09:21:39.158Z,1.10
2022-08-02T09:24:22.005Z,0.90
2022-08-02T09:26:53.744Z,0.82
2022-08-02T09:29:26.361Z,0.90
2022-08-02T09:32:05.415Z,1.20
2022-08-02T09:34:47.514Z,1.17
2022-08-02T09:37:31.160Z,1.15
2022-08-02T09:40:03.689Z,1.10
2022-08-02T09:42:33.634Z,1.00
2022-08-02T09:45:04.859Z,1.10
2022-08-02T09:47:37.315Z,1.10
2022-08-02T09:50:11.011Z,1.30
2022-08-02T09:52:46.113Z,1.10
2022-08-02T09:55:18.615Z,1.00
2022-08-02T09:57:51.165Z,1.23
2022-08-02T10:00:43.559Z,1.58
2022-08-02T10:03:21.885Z,1.10
2022-08-02T10:05:57.285Z,1.45
2022-08-02T10:08:33.771Z,1.23
2022-08-02T10:11:06.675Z,1.30
2022-08-02T10:13:37.561Z,1.90
2022-08-02T10:16:08.724Z,1.15
2022-08-02T10:18:40.497Z,1.65
2022-08-02T10:21:15.444Z,1.52
2022-08-02T10:23:47.934Z,1.60
2022-08-02T10:26:23.579Z,1.70
2022-08-02T10:28:53.375Z,1.80
2022-08-02T10:31:26.948Z,1.75
2022-08-02T10:33:58.749Z,1.67
2022-08-02T10:36:30.332Z,2.00
2022-08-02T10:39:01.468Z,2.17
2022-08-02T10:41:48.675Z,2.10
2022-08-02T10:44:29.480Z,2.40
2022-08-02T10:47:24.770Z,1.92
2022-08-02T10:49:56.455Z,2.38
2022-08-02T10:52:27.053Z,2.33
2022-08-02T10:55:01.094Z,2.22
2022-08-02T10:57:36.526Z,3.00
2022-08-02T11:00:17.418Z,2.17
2022-08-02T11:02:52.929Z,2.25
2022-08-02T11:05:42.752Z,2.92
2022-08-02T11:08:22.220Z,3.05
2022-08-02T11:10:51.975Z,2.60
2022-08-02T11:13:26.560Z,2.40
2022-08-02T11:16:01.438Z,2.65
2022-08-02T11:19:01.169Z,2.85
2022-08-02T11:21:32.460Z,2.40
2022-08-02T11:24:30.561Z,3.00
2022-08-02T11:27:02.176Z,3.35
2022-08-02T11:29:39.424Z,2.90
2022-08-02T11:32:10.941Z,3.00
2022-08-02T11:34:42.810Z,2.63
2022-08-02T11:37:12.912Z,3.17
2022-08-02T11:39:42.774Z,2.85
2022-08-02T11:42:13.111Z,3.33
2022-08-02T11:44:46.755Z,3.30
2022-08-02T11:47:16.563Z,3.63
2022-08-02T11:49:47.206Z,3.58
2022-08-02T11:52:16.940Z,2.47
2022-08-02T11:54:47.209Z,2.60
2022-08-02T11:57:20.830Z,2.53
2022-08-02T11:59:55.119Z,2.72
2022-08-02T12:02:26.571Z,2.20
2022-08-02T12:05:02.056Z,2.70
2022-08-02T12:07:36.151Z,3.05
2022-08-02T12:10:08.858Z,3.28
2022-08-02T12:12:50.741Z,4.00
2022-08-02T12:15:36.819Z,4.82
2022-08-02T12:18:24.037Z,4.60
2022-08-02T12:20:53.776Z,5.70
2022-08-02T12:23:23.609Z,5.38
2022-08-02T12:26:03.886Z,5.30
2022-08-02T12:28:39.210Z,5.55
2022-08-02T12:31:14.293Z,6.75
2022-08-02T12:33:52.411Z,5.25
2022-08-02T12:36:24.132Z,4.57
2022-08-02T12:38:54.774Z,5.18
2022-08-02T12:41:30.862Z,5.15
2022-08-02T12:44:02.911Z,5.07
2022-08-02T12:46:35.689Z,7.30
2022-08-02T12:49:19.899Z,7.95
2022-08-02T12:51:56.941Z,7.40
2022-08-02T12:54:32.751Z,7.45
2022-08-02T12:57:14.067Z,7.25
2022-08-02T12:59:45.767Z,5.78
2022-08-02T13:02:18.944Z,6.72
2022-08-02T13:04:50.108Z,7.72
2022-08-02T13:07:20.707Z,7.50
2022-08-02T13:09:50.481Z,8.63
2022-08-02T13:12:20.244Z,6.88
2022-08-02T13:14:49.973Z,7.15
2022-08-02T13:17:22.276Z,7.88
2022-08-02T13:19:52.562Z,8.13
2022-08-02T13:22:23.006Z,8.05
2022-08-02T13:24:56.022Z,8.50
2022-08-02T13:27:28.526Z,7.65
2022-08-02T13:29:59.810Z,7.97
2022-08-02T13:32:32.117Z,8.02
2022-08-02T13:35:02.493Z,6.95
2022-08-02T13:37:34.810Z,7.78
2022-08-02T13:40:21.670Z,9.27
2022-08-02T13:42:52.383Z,8.90
2022-08-02T13:45:22.207Z,8.38
2022-08-02T13:48:04.149Z,8.23
2022-08-02T13:50:35.761Z,9.25
2022-08-02T13:53:05.552Z,9.50
2022-08-02T13:55:35.358Z,9.80
2022-08-02T13:58:05.817Z,7.82
2022-08-02T14:00:36.343Z,10.73
2022-08-02T14:03:12.128Z,9.40
2022-08-02T14:05:48.166Z,9.50
2022-08-02T14:08:19.844Z,10.98
2022-08-02T14:10:50.238Z,9.55
2022-08-02T14:13:20.577Z,10.02
2022-08-02T14:15:50.577Z,9.68
2022-08-02T14:18:22.905Z,11.38
2022-08-02T14:20:52.601Z,8.63
2022-08-02T14:23:49.956Z,11.15
2022-08-02T14:26:27.242Z,10.18
2022-08-02T14:28:57.768Z,7.90
2022-08-02T14:31:27.532Z,9.32
2022-08-02T14:33:59.877Z,7.57
2022-08-02T14:36:29.826Z,9.50
2022-08-02T14:38:59.673Z,8.82
2022-08-02T14:41:29.489Z,8.52
2022-08-02T14:44:08.314Z,6.55
2022-08-02T14:46:40.576Z,6.72
2022-08-02T14:49:24.296Z,7.70
2022-08-02T14:51:54.822Z,8.13
2022-08-02T14:54:28.176Z,6.35
2022-08-02T14:57:01.453Z,5.97
2022-08-02T14:59:31.936Z,7.43
2022-08-02T15:02:02.055Z,6.95
2022-08-02T15:04:42.954Z,6.15
2022-08-02T15:07:13.277Z,6.22
2022-08-02T15:09:43.131Z,6.03
2022-08-02T15:12:14.663Z,5.65
2022-08-02T15:14:44.744Z,6.18
2022-08-02T15:17:14.625Z,5.93
2022-08-02T15:19:57.695Z,6.20
2022-08-02T15:22:31.162Z,7.03
2022-08-02T15:25:01.994Z,6.28
2022-08-02T15:27:33.944Z,6.20
2022-08-02T15:30:09.097Z,6.80
2022-08-02T15:32:38.945Z,5.45
2022-08-02T15:35:11.503Z,7.25
2022-08-02T15:37:41.680Z,5.60
2022-08-02T15:40:13.054Z,6.47
2022-08-02T15:42:43.680Z,5.22
2022-08-02T15:45:15.641Z,6.22
2022-08-02T15:47:48.284Z,6.25
2022-08-02T15:50:23.246Z,4.75
2022-08-02T15:52:52.962Z,5.70
2022-08-02T15:55:22.816Z,6.60
2022-08-02T15:57:52.562Z,7.30
2022-08-02T16:00:22.517Z,6.78
2022-08-02T16:02:52.265Z,6.22
2022-08-02T16:05:24.762Z,6.88
2022-08-02T16:07:54.675Z,5.68
2022-08-02T16:10:24.442Z,6.00
2022-08-02T16:13:14.146Z,6.25
2022-08-02T16:15:43.898Z,7.25
2022-08-02T16:18:13.689Z,6.93
2022-08-02T16:20:46.029Z,6.85
2022-08-02T16:23:15.780Z,5.47
2022-08-02T16:25:45.558Z,5.47
2022-08-02T16:28:15.358Z,4.85
2022-08-02T16:30:59.256Z,4.65
2022-08-02T16:33:34.757Z,4.00
2022-08-02T16:36:07.530Z,3.28
2022-08-02T16:38:37.258Z,2.90
2022-08-02T16:41:07.272Z,2.47
2022-08-02T16:43:37.438Z,2.80
2022-08-02T16:46:09.996Z,3.15
2022-08-02T16:48:40.014Z,2.38
2022-08-02T16:51:14.029Z,2.80
2022-08-02T16:53:59.798Z,2.92
2022-08-02T16:56:30.875Z,2.50
2022-08-02T16:59:00.727Z,2.60
2022-08-02T17:02:11.399Z,2.60
2022-08-02T17:04:22.065Z,2.83
2022-08-02T17:06:54.392Z,2.80
2022-08-02T17:10:02.077Z,2.38
2022-08-02T17:12:18.269Z,2.90
2022-08-02T17:14:55.516Z,2.65
2022-08-02T17:17:34.290Z,2.83
2022-08-02T17:20:04.439Z,2.90
2022-08-02T17:22:37.119Z,2.20
2022-08-02T17:25:11.207Z,2.90
2022-08-02T17:27:40.994Z,2.97
2022-08-02T17:30:12.063Z,2.22
2022-08-02T17:32:45.665Z,2.70
2022-08-02T17:35:16.570Z,2.55
2022-08-02T17:37:54.558Z,2.33
2022-08-02T17:40:29.778Z,3.13
2022-08-02T17:42:59.480Z,2.28
2022-08-02T17:46:02.169Z,2.58
2022-08-02T17:48:19.393Z,2.40
2022-08-02T17:50:59.446Z,2.85
2022-08-02T17:53:36.261Z,2.78
2022-08-02T17:56:06.425Z,2.55
2022-08-02T17:58:36.124Z,2.22
2022-08-02T18:01:24.062Z,2.50
2022-08-02T18:03:54.754Z,2.72
2022-08-02T18:06:26.144Z,2.70
2022-08-02T18:08:59.201Z,2.10
2022-08-02T18:11:52.107Z,2.53
2022-08-02T18:14:19.949Z,2.55
2022-08-02T18:16:51.397Z,2.80
2022-08-02T18:19:22.404Z,2.40
2022-08-02T18:21:52.482Z,2.33
2022-08-02T18:24:25.239Z,2.65
2022-08-02T18:26:58.831Z,2.80
2022-08-02T18:29:30.223Z,2.70
2022-08-02T18:32:11.668Z,2.30
2022-08-02T18:34:44.394Z,2.30
2022-08-02T18:37:17.783Z,2.20
2022-08-02T18:39:51.464Z,2.20
2022-08-02T18:42:21.665Z,2.17
2022-08-02T18:44:51.385Z,2.38
2022-08-02T18:47:22.821Z,2.33
2022-08-02T18:49:56.076Z,1.75
2022-08-02T18:52:30.907Z,2.65
2022-08-02T18:55:07.439Z,2.13
2022-08-02T18:58:17.887Z,2.60
2022-08-02T19:00:36.855Z,2.50
2022-08-02T19:03:07.874Z,2.45
2022-08-02T19:05:53.784Z,3.10
2022-08-02T19:08:25.572Z,2.20
2022-08-02T19:13:48.516Z,2.25
2022-08-02T19:16:19.432Z,2.33
2022-08-02T19:18:49.148Z,2.40
2022-08-02T19:21:19.326Z,2.03
2022-08-02T19:24:09.865Z,2.30
2022-08-02T19:26:42.507Z,2.33
2022-08-02T19:29:41.970Z,2.17
2022-08-02T19:32:41.303Z,1.95
2022-08-02T19:35:02.197Z,1.90
2022-08-02T19:37:38.664Z,2.15
2022-08-02T19:40:09.939Z,2.13
2022-08-02T19:42:42.314Z,2.33
2022-08-02T19:45:48.945Z,2.40
2022-08-02T19:48:23.581Z,2.05
2022-08-02T19:51:00.855Z,2.35
2022-08-02T19:53:47.253Z,2.10
2022-08-02T19:56:21.252Z,2.03
2022-08-02T19:59:13.220Z,2.40
2022-08-02T20:01:48.484Z,2.58
2022-08-02T20:04:23.135Z,2.25
2022-08-02T20:06:53.641Z,2.47
2022-08-02T20:09:33.180Z,2.25
2022-08-02T20:12:16.805Z,2.38
2022-08-02T20:14:51.149Z,1.95
2022-08-02T20:17:21.766Z,2.60
2022-08-02T20:19:52.287Z,2.22
2022-08-02T20:22:22.013Z,2.47
2022-08-02T20:24:51.745Z,2.63
2022-08-02T20:27:24.786Z,2.75
2022-08-02T20:29:59.499Z,2.30
2022-08-02T20:32:29.229Z,2.50
2022-08-02T20:34:58.913Z,2.50
2022-08-02T20:38:00.089Z,2.30
2022-08-02T20:40:18.613Z,2.35
2022-08-02T20:42:49.127Z,2.42
2022-08-02T20:45:21.911Z,2.15
2022-08-02T20:47:52.492Z,2.60
2022-08-02T20:50:35.019Z,2.65
2022-08-02T20:53:05.017Z,2.63
2022-08-02T20:55:35.802Z,2.47
2022-08-02T20:58:06.733Z,2.25
2022-08-02T21:00:44.352Z,2.42
2022-08-02T21:03:15.952Z,2.28
2022-08-02T21:05:54.611Z,2.63
2022-08-02T21:08:25.833Z,2.78
2022-08-02T21:10:55.844Z,2.30
2022-08-02T21:13:26.809Z,2.80
2022-08-02T21:16:00.454Z,2.50
2022-08-02T21:18:40.344Z,2.70
2022-08-02T21:21:11.362Z,2.55
2022-08-02T21:23:45.025Z,2.30
2022-08-02T21:26:19.715Z,2.33
2022-08-02T21:28:55.648Z,2.20
2022-08-02T21:31:29.997Z,2.30
2022-08-02T21:34:01.904Z,2.40
2022-08-02T21:36:33.551Z,2.38
2022-08-02T21:39:04.918Z,2.20
2022-08-02T21:41:39.099Z,2.35
2022-08-02T21:44:16.064Z,2.47
2022-08-02T21:46:50.225Z,2.20
2022-08-02T21:49:20.848Z,2.30
2022-08-02T21:51:57.429Z,2.70
2022-08-02T21:54:27.149Z,2.30
2022-08-02T21:56:57.740Z,2.80
2022-08-02T21:59:28.529Z,2.33
2022-08-02T22:02:00.912Z,2.58
2022-08-02T22:04:30.969Z,2.83
2022-08-02T22:07:00.864Z,2.88
2022-08-02T22:09:42.818Z,3.10
2022-08-02T22:12:17.570Z,2.90
2022-08-02T22:14:53.514Z,2.40
2022-08-02T22:17:51.657Z,2.75
2022-08-02T22:20:20.679Z,3.10
2022-08-02T22:22:52.488Z,2.75
2022-08-02T22:25:36.037Z,2.42
2022-08-02T22:28:39.411Z,2.75
2022-08-02T22:30:59.989Z,2.10
2022-08-02T22:34:00.317Z,2.35
2022-08-02T22:36:31.867Z,2.60
2022-08-02T22:39:02.340Z,2.60
2022-08-02T22:42:01.444Z,2.70
2022-08-02T22:44:21.858Z,2.83
2022-08-02T22:46:51.643Z,2.85
2022-08-02T22:49:39.092Z,2.42
2022-08-02T22:52:15.123Z,2.75
2022-08-02T22:54:50.918Z,2.00
2022-08-02T22:57:50.563Z,2.40
2022-08-02T22:58:59.657Z,2.30
2022-08-02T23:00:27.597Z,2.90
2022-08-02T23:02:57.312Z,2.30
2022-08-02T23:05:29.846Z,2.90
2022-08-02T23:07:59.569Z,2.90
2022-08-02T23:10:29.370Z,2.83
2022-08-02T23:12:59.301Z,2.40
2022-08-02T23:15:49.583Z,2.20
2022-08-02T23:18:31.739Z,2.42
2022-08-02T23:21:04.016Z,2.30
2022-08-02T23:23:33.703Z,2.03
2022-08-02T23:26:03.437Z,2.53
2022-08-02T23:28:33.407Z,2.25
2022-08-02T23:31:03.104Z,2.40
2022-08-02T23:34:03.489Z,2.17
2022-08-02T23:36:31.931Z,2.30
2022-08-02T23:39:02.522Z,2.15
2022-08-02T23:41:32.235Z,2.78
2022-08-02T23:44:16.081Z,2.42
2022-08-02T23:46:46.152Z,2.17
2022-08-02T23:49:16.518Z,2.60
2022-08-02T23:51:49.232Z,2.75
2022-08-02T23:54:19.464Z,2.60
2022-08-02T23:56:49.751Z,3.30
2022-08-02T23:59:20.000Z,2.90
